sensor_id;sensor_type;location;lat;lon;timestamp;P1;durP1;ratioP1;P2;durP2;ratioP2
24897;SDS011;12957;49.434;8.684;2022-11-15T00:00:46;3.42;;;2.75;;
24897;SDS011;12957;49.434;8.684;2022-11-15T00:03:15;3.63;;;2.65;;
24897;SDS011;12957;49.434;8.684;2022-11-15T00:05:41;4.07;;;2.70;;
24897;SDS011;12957;49.434;8.684;2022-11-15T00:08:07;3.75;;;2.90;;
24897;SDS011;12957;49.434;8.684;2022-11-15T00:10:33;4.30;;;2.65;;
24897;SDS011;12957;49.434;8.684;2022-11-15T00:12:58;7.10;;;2.90;;
24897;SDS011;12957;49.434;8.684;2022-11-15T00:15:24;3.83;;;2.83;;
24897;SDS011;12957;49.434;8.684;2022-11-15T00:17:49;10.70;;;2.95;;
24897;SDS011;12957;49.434;8.684;2022-11-15T00:20:16;4.68;;;2.90;;
24897;SDS011;12957;49.434;8.684;2022-11-15T00:22:42;3.00;;;2.70;;
24897;SDS011;12957;49.434;8.684;2022-11-15T00:25:07;5.53;;;2.92;;
24897;SDS011;12957;49.434;8.684;2022-11-15T00:27:33;4.18;;;3.10;;
24897;SDS011;12957;49.434;8.684;2022-11-15T00:29:58;4.28;;;3.17;;
24897;SDS011;12957;49.434;8.684;2022-11-15T00:32:24;10.23;;;2.85;;
24897;SDS011;12957;49.434;8.684;2022-11-15T00:34:49;6.50;;;3.08;;
24897;SDS011;12957;49.434;8.684;2022-11-15T00:37:15;10.10;;;3.33;;
24897;SDS011;12957;49.434;8.684;2022-11-15T00:39:41;4.72;;;2.90;;
24897;SDS011;12957;49.434;8.684;2022-11-15T00:42:06;6.72;;;3.40;;
24897;SDS011;12957;49.434;8.684;2022-11-15T00:44:32;4.25;;;3.20;;
24897;SDS011;12957;49.434;8.684;2022-11-15T00:46:57;7.18;;;2.95;;
24897;SDS011;12957;49.434;8.684;2022-11-15T00:49:23;8.32;;;3.50;;
24897;SDS011;12957;49.434;8.684;2022-11-15T00:51:48;6.97;;;3.50;;
24897;SDS011;12957;49.434;8.684;2022-11-15T00:54:14;6.22;;;3.22;;
24897;SDS011;12957;49.434;8.684;2022-11-15T00:56:39;5.30;;;3.10;;
24897;SDS011;12957;49.434;8.684;2022-11-15T00:59:05;7.88;;;3.30;;
24897;SDS011;12957;49.434;8.684;2022-11-15T01:01:30;4.05;;;2.92;;
24897;SDS011;12957;49.434;8.684;2022-11-15T01:03:56;5.47;;;3.17;;
24897;SDS011;12957;49.434;8.684;2022-11-15T01:06:21;3.47;;;3.03;;
24897;SDS011;12957;49.434;8.684;2022-11-15T01:08:47;6.45;;;3.30;;
24897;SDS011;12957;49.434;8.684;2022-11-15T01:11:12;4.07;;;3.58;;
24897;SDS011;12957;49.434;8.684;2022-11-15T01:13:38;4.85;;;3.22;;
24897;SDS011;12957;49.434;8.684;2022-11-15T01:16:11;7.88;;;3.10;;
24897;SDS011;12957;49.434;8.684;2022-11-15T01:18:39;5.05;;;3.30;;
24897;SDS011;12957;49.434;8.684;2022-11-15T01:21:06;7.03;;;3.17;;
24897;SDS011;12957;49.434;8.684;2022-11-15T01:23:33;4.70;;;3.10;;
24897;SDS011;12957;49.434;8.684;2022-11-15T01:26:02;4.35;;;2.83;;
24897;SDS011;12957;49.434;8.684;2022-11-15T01:28:36;7.03;;;3.38;;
24897;SDS011;12957;49.434;8.684;2022-11-15T01:31:02;5.15;;;3.40;;
24897;SDS011;12957;49.434;8.684;2022-11-15T01:33:29;6.22;;;3.13;;
24897;SDS011;12957;49.434;8.684;2022-11-15T01:35:55;6.45;;;2.95;;
24897;SDS011;12957;49.434;8.684;2022-11-15T01:38:21;4.93;;;2.95;;
24897;SDS011;12957;49.434;8.684;2022-11-15T01:40:46;3.80;;;2.80;;
24897;SDS011;12957;49.434;8.684;2022-11-15T01:43:19;6.60;;;2.90;;
24897;SDS011;12957;49.434;8.684;2022-11-15T01:48:39;8.00;;;2.90;;
24897;SDS011;12957;49.434;8.684;2022-11-15T01:51:06;5.78;;;3.10;;
24897;SDS011;12957;49.434;8.684;2022-11-15T01:53:33;3.95;;;2.67;;
24897;SDS011;12957;49.434;8.684;2022-11-15T01:55:59;3.10;;;2.80;;
24897;SDS011;12957;49.434;8.684;2022-11-15T01:58:27;6.43;;;2.90;;
24897;SDS011;12957;49.434;8.684;2022-11-15T02:00:53;4.55;;;2.63;;
24897;SDS011;12957;49.434;8.684;2022-11-15T02:03:18;5.35;;;3.25;;
24897;SDS011;12957;49.434;8.684;2022-11-15T02:05:45;5.75;;;2.78;;
24897;SDS011;12957;49.434;8.684;2022-11-15T02:08:11;5.75;;;2.83;;
24897;SDS011;12957;49.434;8.684;2022-11-15T02:10:44;5.25;;;2.90;;
24897;SDS011;12957;49.434;8.684;2022-11-15T02:13:16;6.82;;;2.70;;
24897;SDS011;12957;49.434;8.684;2022-11-15T02:15:46;4.35;;;2.85;;
24897;SDS011;12957;49.434;8.684;2022-11-15T02:18:34;4.28;;;2.90;;
24897;SDS011;12957;49.434;8.684;2022-11-15T02:25:06;3.08;;;2.75;;
24897;SDS011;12957;49.434;8.684;2022-11-15T02:30:19;3.95;;;2.38;;
24897;SDS011;12957;49.434;8.684;2022-11-15T02:36:10;5.57;;;2.90;;
24897;SDS011;12957;49.434;8.684;2022-11-15T02:38:47;4.45;;;2.75;;
24897;SDS011;12957;49.434;8.684;2022-11-15T02:44:13;3.00;;;2.50;;
24897;SDS011;12957;49.434;8.684;2022-11-15T02:46:45;4.60;;;2.70;;
24897;SDS011;12957;49.434;8.684;2022-11-15T02:49:33;4.60;;;2.78;;
24897;SDS011;12957;49.434;8.684;2022-11-15T02:52:02;3.30;;;2.60;;
24897;SDS011;12957;49.434;8.684;2022-11-15T02:54:29;4.68;;;3.28;;
24897;SDS011;12957;49.434;8.684;2022-11-15T02:56:56;3.80;;;2.60;;
24897;SDS011;12957;49.434;8.684;2022-11-15T02:59:43;3.30;;;2.60;;
24897;SDS011;12957;49.434;8.684;2022-11-15T03:02:32;4.00;;;2.63;;
24897;SDS011;12957;49.434;8.684;2022-11-15T03:08:02;5.00;;;2.65;;
24897;SDS011;12957;49.434;8.684;2022-11-15T03:13:24;4.22;;;2.50;;
24897;SDS011;12957;49.434;8.684;2022-11-15T03:16:27;3.60;;;2.35;;
24897;SDS011;12957;49.434;8.684;2022-11-15T03:18:47;5.00;;;2.42;;
24897;SDS011;12957;49.434;8.684;2022-11-15T03:21:16;5.07;;;2.67;;
24897;SDS011;12957;49.434;8.684;2022-11-15T03:23:44;3.00;;;2.58;;
24897;SDS011;12957;49.434;8.684;2022-11-15T03:26:10;2.75;;;2.50;;
24897;SDS011;12957;49.434;8.684;2022-11-15T03:28:38;4.90;;;2.63;;
24897;SDS011;12957;49.434;8.684;2022-11-15T03:31:07;4.57;;;2.95;;
24897;SDS011;12957;49.434;8.684;2022-11-15T03:33:53;4.07;;;2.47;;
24897;SDS011;12957;49.434;8.684;2022-11-15T03:36:21;7.43;;;2.60;;
24897;SDS011;12957;49.434;8.684;2022-11-15T03:38:47;7.47;;;3.00;;
24897;SDS011;12957;49.434;8.684;2022-11-15T03:41:18;5.10;;;2.80;;
24897;SDS011;12957;49.434;8.684;2022-11-15T03:43:55;4.35;;;2.70;;
24897;SDS011;12957;49.434;8.684;2022-11-15T03:46:36;2.97;;;2.60;;
24897;SDS011;12957;49.434;8.684;2022-11-15T03:49:06;3.60;;;2.25;;
24897;SDS011;12957;49.434;8.684;2022-11-15T03:51:35;4.93;;;2.63;;
24897;SDS011;12957;49.434;8.684;2022-11-15T03:54:02;3.05;;;2.75;;
24897;SDS011;12957;49.434;8.684;2022-11-15T03:56:29;2.50;;;2.30;;
24897;SDS011;12957;49.434;8.684;2022-11-15T03:58:54;4.00;;;2.90;;
24897;SDS011;12957;49.434;8.684;2022-11-15T04:01:19;2.97;;;2.65;;
24897;SDS011;12957;49.434;8.684;2022-11-15T04:03:45;3.63;;;2.65;;
24897;SDS011;12957;49.434;8.684;2022-11-15T04:06:10;4.07;;;2.70;;
24897;SDS011;12957;49.434;8.684;2022-11-15T04:08:36;3.53;;;2.38;;
24897;SDS011;12957;49.434;8.684;2022-11-15T04:11:02;3.45;;;2.60;;
24897;SDS011;12957;49.434;8.684;2022-11-15T04:13:27;4.70;;;2.30;;
24897;SDS011;12957;49.434;8.684;2022-11-15T04:15:52;4.55;;;2.60;;
24897;SDS011;12957;49.434;8.684;2022-11-15T04:18:18;4.43;;;2.88;;
24897;SDS011;12957;49.434;8.684;2022-11-15T04:20:43;4.30;;;2.55;;
24897;SDS011;12957;49.434;8.684;2022-11-15T04:23:28;5.05;;;2.70;;
24897;SDS011;12957;49.434;8.684;2022-11-15T04:26:14;2.80;;;2.17;;
24897;SDS011;12957;49.434;8.684;2022-11-15T04:28:40;4.50;;;2.53;;
24897;SDS011;12957;49.434;8.684;2022-11-15T04:31:27;2.50;;;2.03;;
24897;SDS011;12957;49.434;8.684;2022-11-15T04:33:53;3.83;;;2.60;;
24897;SDS011;12957;49.434;8.684;2022-11-15T04:36:19;2.40;;;2.20;;
24897;SDS011;12957;49.434;8.684;2022-11-15T04:39:03;4.70;;;2.53;;
24897;SDS011;12957;49.434;8.684;2022-11-15T04:41:29;3.42;;;2.45;;
24897;SDS011;12957;49.434;8.684;2022-11-15T04:43:55;5.78;;;2.63;;
24897;SDS011;12957;49.434;8.684;2022-11-15T04:46:21;3.97;;;2.60;;
24897;SDS011;12957;49.434;8.684;2022-11-15T04:48:47;4.43;;;2.22;;
24897;SDS011;12957;49.434;8.684;2022-11-15T04:51:13;4.43;;;2.63;;
24897;SDS011;12957;49.434;8.684;2022-11-15T04:53:38;5.03;;;2.38;;
24897;SDS011;12957;49.434;8.684;2022-11-15T04:56:04;2.33;;;2.10;;
24897;SDS011;12957;49.434;8.684;2022-11-15T04:58:29;3.25;;;2.15;;
24897;SDS011;12957;49.434;8.684;2022-11-15T05:00:55;4.78;;;2.47;;
24897;SDS011;12957;49.434;8.684;2022-11-15T05:03:20;3.00;;;2.28;;
24897;SDS011;12957;49.434;8.684;2022-11-15T05:06:04;7.57;;;2.40;;
24897;SDS011;12957;49.434;8.684;2022-11-15T05:08:30;2.83;;;2.03;;
24897;SDS011;12957;49.434;8.684;2022-11-15T05:10:56;3.00;;;2.28;;
24897;SDS011;12957;49.434;8.684;2022-11-15T05:13:21;4.78;;;2.20;;
24897;SDS011;12957;49.434;8.684;2022-11-15T05:15:47;6.20;;;2.75;;
24897;SDS011;12957;49.434;8.684;2022-11-15T05:18:12;4.22;;;2.50;;
24897;SDS011;12957;49.434;8.684;2022-11-15T05:20:38;9.80;;;2.63;;
24897;SDS011;12957;49.434;8.684;2022-11-15T05:23:03;3.15;;;2.40;;
24897;SDS011;12957;49.434;8.684;2022-11-15T05:25:29;5.35;;;2.38;;
24897;SDS011;12957;49.434;8.684;2022-11-15T05:27:54;3.05;;;2.40;;
24897;SDS011;12957;49.434;8.684;2022-11-15T05:30:20;2.58;;;2.38;;
24897;SDS011;12957;49.434;8.684;2022-11-15T05:32:45;2.28;;;2.08;;
24897;SDS011;12957;49.434;8.684;2022-11-15T05:35:12;4.07;;;2.28;;
24897;SDS011;12957;49.434;8.684;2022-11-15T05:37:43;3.95;;;2.33;;
24897;SDS011;12957;49.434;8.684;2022-11-15T05:40:09;1.98;;;1.88;;
24897;SDS011;12957;49.434;8.684;2022-11-15T05:42:34;7.15;;;2.67;;
24897;SDS011;12957;49.434;8.684;2022-11-15T05:45:00;4.22;;;2.30;;
24897;SDS011;12957;49.434;8.684;2022-11-15T05:47:28;6.05;;;2.70;;
24897;SDS011;12957;49.434;8.684;2022-11-15T05:49:54;3.17;;;2.30;;
24897;SDS011;12957;49.434;8.684;2022-11-15T05:52:22;6.68;;;2.35;;
24897;SDS011;12957;49.434;8.684;2022-11-15T05:54:49;14.77;;;3.00;;
24897;SDS011;12957;49.434;8.684;2022-11-15T05:57:15;3.00;;;2.75;;
24897;SDS011;12957;49.434;8.684;2022-11-15T05:59:41;3.85;;;3.10;;
24897;SDS011;12957;49.434;8.684;2022-11-15T06:02:08;5.75;;;3.10;;
24897;SDS011;12957;49.434;8.684;2022-11-15T06:04:34;4.60;;;2.70;;
24897;SDS011;12957;49.434;8.684;2022-11-15T06:06:59;4.57;;;2.40;;
24897;SDS011;12957;49.434;8.684;2022-11-15T06:09:25;3.97;;;2.63;;
24897;SDS011;12957;49.434;8.684;2022-11-15T06:11:50;4.40;;;2.42;;
24897;SDS011;12957;49.434;8.684;2022-11-15T06:14:16;3.35;;;2.50;;
24897;SDS011;12957;49.434;8.684;2022-11-15T06:16:41;6.57;;;2.80;;
24897;SDS011;12957;49.434;8.684;2022-11-15T06:19:07;3.55;;;2.63;;
24897;SDS011;12957;49.434;8.684;2022-11-15T06:21:32;4.25;;;2.33;;
24897;SDS011;12957;49.434;8.684;2022-11-15T06:23:58;5.65;;;2.35;;
24897;SDS011;12957;49.434;8.684;2022-11-15T06:26:23;4.25;;;2.28;;
24897;SDS011;12957;49.434;8.684;2022-11-15T06:28:49;4.00;;;2.30;;
24897;SDS011;12957;49.434;8.684;2022-11-15T06:31:14;4.75;;;2.75;;
24897;SDS011;12957;49.434;8.684;2022-11-15T06:33:40;4.60;;;2.53;;
24897;SDS011;12957;49.434;8.684;2022-11-15T06:36:09;4.30;;;2.50;;
24897;SDS011;12957;49.434;8.684;2022-11-15T06:38:38;2.55;;;2.35;;
24897;SDS011;12957;49.434;8.684;2022-11-15T06:41:05;4.35;;;2.55;;
24897;SDS011;12957;49.434;8.684;2022-11-15T06:43:31;4.10;;;2.35;;
24897;SDS011;12957;49.434;8.684;2022-11-15T06:45:58;2.20;;;2.10;;
24897;SDS011;12957;49.434;8.684;2022-11-15T06:48:24;2.35;;;2.08;;
24897;SDS011;12957;49.434;8.684;2022-11-15T06:50:51;4.25;;;2.50;;
24897;SDS011;12957;49.434;8.684;2022-11-15T06:53:19;5.43;;;2.40;;
24897;SDS011;12957;49.434;8.684;2022-11-15T06:55:44;5.25;;;2.40;;
24897;SDS011;12957;49.434;8.684;2022-11-15T06:58:10;3.40;;;2.35;;
24897;SDS011;12957;49.434;8.684;2022-11-15T07:00:35;3.80;;;2.22;;
24897;SDS011;12957;49.434;8.684;2022-11-15T07:03:01;5.60;;;2.30;;
24897;SDS011;12957;49.434;8.684;2022-11-15T07:05:27;4.43;;;2.40;;
24897;SDS011;12957;49.434;8.684;2022-11-15T07:07:53;6.30;;;2.70;;
24897;SDS011;12957;49.434;8.684;2022-11-15T07:10:20;6.25;;;2.80;;
24897;SDS011;12957;49.434;8.684;2022-11-15T07:12:47;3.55;;;2.55;;
24897;SDS011;12957;49.434;8.684;2022-11-15T07:15:13;4.50;;;2.50;;
24897;SDS011;12957;49.434;8.684;2022-11-15T07:17:40;10.60;;;5.03;;
24897;SDS011;12957;49.434;8.684;2022-11-15T07:20:09;3.55;;;2.78;;
24897;SDS011;12957;49.434;8.684;2022-11-15T07:22:35;3.70;;;2.60;;
24897;SDS011;12957;49.434;8.684;2022-11-15T07:25:00;5.38;;;3.05;;
24897;SDS011;12957;49.434;8.684;2022-11-15T07:27:26;4.53;;;2.95;;
24897;SDS011;12957;49.434;8.684;2022-11-15T07:29:51;3.08;;;2.60;;
24897;SDS011;12957;49.434;8.684;2022-11-15T07:32:17;3.75;;;2.55;;
24897;SDS011;12957;49.434;8.684;2022-11-15T07:34:42;3.75;;;2.65;;
24897;SDS011;12957;49.434;8.684;2022-11-15T07:37:08;6.20;;;3.10;;
24897;SDS011;12957;49.434;8.684;2022-11-15T07:39:34;5.05;;;2.75;;
24897;SDS011;12957;49.434;8.684;2022-11-15T07:41:59;4.50;;;3.22;;
24897;SDS011;12957;49.434;8.684;2022-11-15T07:44:43;4.65;;;3.17;;
24897;SDS011;12957;49.434;8.684;2022-11-15T07:47:09;6.45;;;3.45;;
24897;SDS011;12957;49.434;8.684;2022-11-15T07:49:34;4.50;;;2.55;;
24897;SDS011;12957;49.434;8.684;2022-11-15T07:52:00;5.32;;;2.72;;
24897;SDS011;12957;49.434;8.684;2022-11-15T07:54:25;4.95;;;2.97;;
24897;SDS011;12957;49.434;8.684;2022-11-15T07:56:51;5.32;;;2.92;;
24897;SDS011;12957;49.434;8.684;2022-11-15T07:59:16;5.60;;;2.50;;
24897;SDS011;12957;49.434;8.684;2022-11-15T08:01:42;3.45;;;2.17;;
24897;SDS011;12957;49.434;8.684;2022-11-15T08:04:07;5.45;;;2.50;;
24897;SDS011;12957;49.434;8.684;2022-11-15T08:06:33;4.47;;;2.45;;
24897;SDS011;12957;49.434;8.684;2022-11-15T08:08:58;4.38;;;2.60;;
24897;SDS011;12957;49.434;8.684;2022-11-15T08:11:24;3.08;;;2.55;;
24897;SDS011;12957;49.434;8.684;2022-11-15T08:13:49;5.05;;;2.30;;
24897;SDS011;12957;49.434;8.684;2022-11-15T08:16:14;6.97;;;2.40;;
24897;SDS011;12957;49.434;8.684;2022-11-15T08:18:40;4.55;;;2.10;;
24897;SDS011;12957;49.434;8.684;2022-11-15T08:21:05;2.40;;;2.20;;
24897;SDS011;12957;49.434;8.684;2022-11-15T08:23:31;2.25;;;1.98;;
24897;SDS011;12957;49.434;8.684;2022-11-15T08:26:00;3.97;;;1.90;;
24897;SDS011;12957;49.434;8.684;2022-11-15T08:28:29;2.08;;;1.90;;
24897;SDS011;12957;49.434;8.684;2022-11-15T08:30:55;2.83;;;2.00;;
24897;SDS011;12957;49.434;8.684;2022-11-15T08:33:21;4.53;;;2.15;;
24897;SDS011;12957;49.434;8.684;2022-11-15T08:35:46;1.90;;;1.77;;
24897;SDS011;12957;49.434;8.684;2022-11-15T08:38:12;4.43;;;2.13;;
24897;SDS011;12957;49.434;8.684;2022-11-15T08:40:37;4.68;;;1.80;;
24897;SDS011;12957;49.434;8.684;2022-11-15T08:43:03;3.08;;;1.98;;
24897;SDS011;12957;49.434;8.684;2022-11-15T08:45:29;2.42;;;2.20;;
24897;SDS011;12957;49.434;8.684;2022-11-15T08:47:55;3.05;;;2.22;;
24897;SDS011;12957;49.434;8.684;2022-11-15T08:50:20;2.33;;;2.10;;
24897;SDS011;12957;49.434;8.684;2022-11-15T08:52:46;2.25;;;2.10;;
24897;SDS011;12957;49.434;8.684;2022-11-15T08:55:13;1.90;;;1.80;;
24897;SDS011;12957;49.434;8.684;2022-11-15T08:57:38;1.98;;;1.88;;
24897;SDS011;12957;49.434;8.684;2022-11-15T09:00:06;2.33;;;2.10;;
24897;SDS011;12957;49.434;8.684;2022-11-15T09:02:32;4.38;;;1.75;;
24897;SDS011;12957;49.434;8.684;2022-11-15T09:04:57;3.80;;;1.83;;
24897;SDS011;12957;49.434;8.684;2022-11-15T09:07:23;3.42;;;2.22;;
24897;SDS011;12957;49.434;8.684;2022-11-15T09:09:49;2.40;;;2.10;;
24897;SDS011;12957;49.434;8.684;2022-11-15T09:12:14;5.00;;;2.20;;
24897;SDS011;12957;49.434;8.684;2022-11-15T09:14:40;4.25;;;2.50;;
24897;SDS011;12957;49.434;8.684;2022-11-15T09:17:08;3.63;;;1.85;;
24897;SDS011;12957;49.434;8.684;2022-11-15T09:19:34;2.20;;;2.00;;
24897;SDS011;12957;49.434;8.684;2022-11-15T09:21:59;2.42;;;2.20;;
24897;SDS011;12957;49.434;8.684;2022-11-15T09:24:25;3.55;;;2.33;;
24897;SDS011;12957;49.434;8.684;2022-11-15T09:26:50;3.00;;;1.83;;
24897;SDS011;12957;49.434;8.684;2022-11-15T09:29:17;2.92;;;2.10;;
24897;SDS011;12957;49.434;8.684;2022-11-15T09:31:42;2.47;;;2.28;;
24897;SDS011;12957;49.434;8.684;2022-11-15T09:34:08;2.90;;;2.30;;
24897;SDS011;12957;49.434;8.684;2022-11-15T09:36:34;4.00;;;2.40;;
24897;SDS011;12957;49.434;8.684;2022-11-15T09:39:00;2.40;;;2.15;;
24897;SDS011;12957;49.434;8.684;2022-11-15T09:41:30;2.95;;;2.20;;
24897;SDS011;12957;49.434;8.684;2022-11-15T09:49:16;3.92;;;2.20;;
24897;SDS011;12957;49.434;8.684;2022-11-15T09:51:43;2.92;;;2.60;;
24897;SDS011;12957;49.434;8.684;2022-11-15T09:56:42;3.17;;;2.78;;
24897;SDS011;12957;49.434;8.684;2022-11-15T10:02:16;7.85;;;2.65;;
24897;SDS011;12957;49.434;8.684;2022-11-15T10:04:49;3.10;;;2.10;;
24897;SDS011;12957;49.434;8.684;2022-11-15T10:07:19;2.42;;;2.20;;
24897;SDS011;12957;49.434;8.684;2022-11-15T10:09:53;4.05;;;2.30;;
24897;SDS011;12957;49.434;8.684;2022-11-15T10:12:23;6.13;;;2.35;;
24897;SDS011;12957;49.434;8.684;2022-11-15T10:14:50;5.13;;;2.80;;
24897;SDS011;12957;49.434;8.684;2022-11-15T10:20:20;2.10;;;2.00;;
24897;SDS011;12957;49.434;8.684;2022-11-15T10:22:48;2.33;;;2.08;;
24897;SDS011;12957;49.434;8.684;2022-11-15T10:25:20;2.45;;;2.20;;
24897;SDS011;12957;49.434;8.684;2022-11-15T10:27:52;5.38;;;2.38;;
24897;SDS011;12957;49.434;8.684;2022-11-15T10:30:40;3.63;;;2.45;;
24897;SDS011;12957;49.434;8.684;2022-11-15T10:33:11;5.95;;;2.90;;
24897;SDS011;12957;49.434;8.684;2022-11-15T10:46:37;3.72;;;2.38;;
24897;SDS011;12957;49.434;8.684;2022-11-15T10:51:53;5.22;;;2.45;;
24897;SDS011;12957;49.434;8.684;2022-11-15T10:57:07;4.25;;;2.53;;
24897;SDS011;12957;49.434;8.684;2022-11-15T11:10:53;6.82;;;2.58;;
24897;SDS011;12957;49.434;8.684;2022-11-15T11:13:23;2.30;;;2.10;;
24897;SDS011;12957;49.434;8.684;2022-11-15T11:15:55;2.38;;;2.15;;
24897;SDS011;12957;49.434;8.684;2022-11-15T11:24:08;3.53;;;2.35;;
24897;SDS011;12957;49.434;8.684;2022-11-15T11:26:55;3.55;;;2.10;;
24897;SDS011;12957;49.434;8.684;2022-11-15T11:37:49;1.85;;;1.75;;
24897;SDS011;12957;49.434;8.684;2022-11-15T11:43:52;3.28;;;2.15;;
24897;SDS011;12957;49.434;8.684;2022-11-15T11:49:31;5.07;;;2.10;;
24897;SDS011;12957;49.434;8.684;2022-11-15T11:52:02;2.55;;;2.03;;
24897;SDS011;12957;49.434;8.684;2022-11-15T11:59:53;3.50;;;1.98;;
24897;SDS011;12957;49.434;8.684;2022-11-15T12:02:31;2.25;;;2.03;;
24897;SDS011;12957;49.434;8.684;2022-11-15T12:05:11;2.17;;;2.00;;
24897;SDS011;12957;49.434;8.684;2022-11-15T12:07:42;2.25;;;2.05;;
24897;SDS011;12957;49.434;8.684;2022-11-15T12:10:22;2.03;;;1.83;;
24897;SDS011;12957;49.434;8.684;2022-11-15T12:13:00;1.63;;;1.52;;
24897;SDS011;12957;49.434;8.684;2022-11-15T12:15:32;2.92;;;1.88;;
24897;SDS011;12957;49.434;8.684;2022-11-15T12:18:02;3.33;;;1.90;;
24897;SDS011;12957;49.434;8.684;2022-11-15T12:20:30;3.50;;;1.95;;
24897;SDS011;12957;49.434;8.684;2022-11-15T12:23:00;2.70;;;2.40;;
24897;SDS011;12957;49.434;8.684;2022-11-15T12:25:53;2.00;;;1.90;;
24897;SDS011;12957;49.434;8.684;2022-11-15T12:28:41;2.17;;;1.60;;
24897;SDS011;12957;49.434;8.684;2022-11-15T12:31:12;1.55;;;1.50;;
24897;SDS011;12957;49.434;8.684;2022-11-15T12:33:50;2.70;;;2.03;;
24897;SDS011;12957;49.434;8.684;2022-11-15T12:41:31;1.48;;;1.45;;
24897;SDS011;12957;49.434;8.684;2022-11-15T12:43:57;2.42;;;2.28;;
24897;SDS011;12957;49.434;8.684;2022-11-15T12:49:41;1.30;;;1.30;;
24897;SDS011;12957;49.434;8.684;2022-11-15T13:04:52;1.77;;;1.65;;
24897;SDS011;12957;49.434;8.684;2022-11-15T13:09:59;2.53;;;1.95;;
24897;SDS011;12957;49.434;8.684;2022-11-15T13:12:48;5.03;;;1.77;;
24897;SDS011;12957;49.434;8.684;2022-11-15T13:17:50;2.30;;;1.60;;
24897;SDS011;12957;49.434;8.684;2022-11-15T13:27:57;4.55;;;1.98;;
24897;SDS011;12957;49.434;8.684;2022-11-15T13:30:26;3.90;;;1.98;;
24897;SDS011;12957;49.434;8.684;2022-11-15T13:32:53;4.10;;;1.67;;
24897;SDS011;12957;49.434;8.684;2022-11-15T13:37:50;5.75;;;1.75;;
24897;SDS011;12957;49.434;8.684;2022-11-15T13:42:48;3.85;;;1.70;;
24897;SDS011;12957;49.434;8.684;2022-11-15T13:45:15;2.65;;;1.70;;
24897;SDS011;12957;49.434;8.684;2022-11-15T13:47:42;4.13;;;1.52;;
24897;SDS011;12957;49.434;8.684;2022-11-15T13:50:11;1.70;;;1.60;;
24897;SDS011;12957;49.434;8.684;2022-11-15T13:52:38;1.67;;;1.58;;
24897;SDS011;12957;49.434;8.684;2022-11-15T13:55:17;1.95;;;1.67;;
24897;SDS011;12957;49.434;8.684;2022-11-15T13:57:53;4.47;;;1.70;;
24897;SDS011;12957;49.434;8.684;2022-11-15T14:00:58;1.85;;;1.40;;
24897;SDS011;12957;49.434;8.684;2022-11-15T14:03:17;1.88;;;1.58;;
24897;SDS011;12957;49.434;8.684;2022-11-15T14:08:36;2.42;;;1.50;;
24897;SDS011;12957;49.434;8.684;2022-11-15T14:13:37;1.98;;;1.48;;
24897;SDS011;12957;49.434;8.684;2022-11-15T14:16:17;1.65;;;1.52;;
24897;SDS011;12957;49.434;8.684;2022-11-15T14:18:46;1.88;;;1.50;;
24897;SDS011;12957;49.434;8.684;2022-11-15T14:21:12;1.45;;;1.45;;
24897;SDS011;12957;49.434;8.684;2022-11-15T14:23:38;2.05;;;1.73;;
24897;SDS011;12957;49.434;8.684;2022-11-15T14:26:03;2.50;;;1.95;;
24897;SDS011;12957;49.434;8.684;2022-11-15T14:28:33;3.78;;;2.00;;
24897;SDS011;12957;49.434;8.684;2022-11-15T14:31:04;4.05;;;2.05;;
24897;SDS011;12957;49.434;8.684;2022-11-15T14:33:36;2.92;;;2.17;;
24897;SDS011;12957;49.434;8.684;2022-11-15T14:36:03;2.65;;;2.00;;
24897;SDS011;12957;49.434;8.684;2022-11-15T14:38:29;2.67;;;1.92;;
24897;SDS011;12957;49.434;8.684;2022-11-15T14:40:54;2.85;;;1.75;;
24897;SDS011;12957;49.434;8.684;2022-11-15T14:43:21;3.65;;;2.17;;
24897;SDS011;12957;49.434;8.684;2022-11-15T14:45:47;3.55;;;2.10;;
24897;SDS011;12957;49.434;8.684;2022-11-15T14:48:12;3.47;;;2.00;;
24897;SDS011;12957;49.434;8.684;2022-11-15T14:50:38;2.58;;;1.90;;
24897;SDS011;12957;49.434;8.684;2022-11-15T14:53:04;2.90;;;2.05;;
24897;SDS011;12957;49.434;8.684;2022-11-15T14:55:31;3.30;;;2.50;;
24897;SDS011;12957;49.434;8.684;2022-11-15T14:57:59;4.75;;;2.35;;
24897;SDS011;12957;49.434;8.684;2022-11-15T15:00:27;3.75;;;2.20;;
24897;SDS011;12957;49.434;8.684;2022-11-15T15:02:53;4.85;;;2.08;;
24897;SDS011;12957;49.434;8.684;2022-11-15T15:05:21;3.15;;;2.08;;
24897;SDS011;12957;49.434;8.684;2022-11-15T15:07:51;5.97;;;2.30;;
24897;SDS011;12957;49.434;8.684;2022-11-15T15:10:18;5.35;;;2.28;;
24897;SDS011;12957;49.434;8.684;2022-11-15T15:12:43;3.67;;;2.20;;
24897;SDS011;12957;49.434;8.684;2022-11-15T15:15:13;2.10;;;1.90;;
24897;SDS011;12957;49.434;8.684;2022-11-15T15:17:42;2.50;;;2.25;;
24897;SDS011;12957;49.434;8.684;2022-11-15T15:20:08;2.45;;;2.25;;
24897;SDS011;12957;49.434;8.684;2022-11-15T15:22:34;5.00;;;2.25;;
24897;SDS011;12957;49.434;8.684;2022-11-15T15:25:00;6.22;;;2.05;;
24897;SDS011;12957;49.434;8.684;2022-11-15T15:27:25;3.25;;;2.50;;
24897;SDS011;12957;49.434;8.684;2022-11-15T15:29:51;2.80;;;2.20;;
24897;SDS011;12957;49.434;8.684;2022-11-15T15:32:16;4.13;;;2.00;;
24897;SDS011;12957;49.434;8.684;2022-11-15T15:34:42;3.33;;;2.10;;
24897;SDS011;12957;49.434;8.684;2022-11-15T15:37:24;4.72;;;3.53;;
24897;SDS011;12957;49.434;8.684;2022-11-15T15:39:51;4.70;;;2.30;;
24897;SDS011;12957;49.434;8.684;2022-11-15T15:42:17;6.05;;;2.53;;
24897;SDS011;12957;49.434;8.684;2022-11-15T15:44:43;3.47;;;2.08;;
24897;SDS011;12957;49.434;8.684;2022-11-15T15:47:10;4.68;;;2.60;;
24897;SDS011;12957;49.434;8.684;2022-11-15T15:49:37;2.38;;;2.17;;
24897;SDS011;12957;49.434;8.684;2022-11-15T15:52:03;4.45;;;2.20;;
24897;SDS011;12957;49.434;8.684;2022-11-15T15:54:28;2.67;;;2.20;;
24897;SDS011;12957;49.434;8.684;2022-11-15T15:56:53;3.03;;;2.08;;
24897;SDS011;12957;49.434;8.684;2022-11-15T15:59:19;7.57;;;2.58;;
24897;SDS011;12957;49.434;8.684;2022-11-15T16:01:44;5.95;;;2.75;;
24897;SDS011;12957;49.434;8.684;2022-11-15T16:04:10;7.28;;;2.58;;
24897;SDS011;12957;49.434;8.684;2022-11-15T16:06:37;4.63;;;2.53;;
24897;SDS011;12957;49.434;8.684;2022-11-15T16:09:04;4.75;;;2.60;;
24897;SDS011;12957;49.434;8.684;2022-11-15T16:11:30;3.22;;;2.67;;
24897;SDS011;12957;49.434;8.684;2022-11-15T16:13:55;7.65;;;2.42;;
24897;SDS011;12957;49.434;8.684;2022-11-15T16:16:21;3.92;;;2.45;;
24897;SDS011;12957;49.434;8.684;2022-11-15T16:18:46;5.40;;;2.65;;
24897;SDS011;12957;49.434;8.684;2022-11-15T16:21:12;3.60;;;2.55;;
24897;SDS011;12957;49.434;8.684;2022-11-15T16:23:38;4.10;;;2.83;;
24897;SDS011;12957;49.434;8.684;2022-11-15T16:26:09;4.00;;;2.45;;
24897;SDS011;12957;49.434;8.684;2022-11-15T16:28:43;4.53;;;2.50;;
24897;SDS011;12957;49.434;8.684;2022-11-15T16:31:11;4.53;;;2.90;;
24897;SDS011;12957;49.434;8.684;2022-11-15T16:33:37;3.08;;;2.28;;
24897;SDS011;12957;49.434;8.684;2022-11-15T16:36:04;4.45;;;2.47;;
24897;SDS011;12957;49.434;8.684;2022-11-15T16:38:30;7.85;;;2.58;;
24897;SDS011;12957;49.434;8.684;2022-11-15T16:40:56;5.22;;;2.60;;
24897;SDS011;12957;49.434;8.684;2022-11-15T16:43:21;6.18;;;2.63;;
24897;SDS011;12957;49.434;8.684;2022-11-15T16:45:47;6.07;;;2.42;;
24897;SDS011;12957;49.434;8.684;2022-11-15T16:48:21;5.43;;;2.80;;
24897;SDS011;12957;49.434;8.684;2022-11-15T16:50:49;3.58;;;2.15;;
24897;SDS011;12957;49.434;8.684;2022-11-15T16:53:14;2.70;;;2.47;;
24897;SDS011;12957;49.434;8.684;2022-11-15T16:55:40;5.45;;;2.38;;
24897;SDS011;12957;49.434;8.684;2022-11-15T16:58:07;6.40;;;2.42;;
24897;SDS011;12957;49.434;8.684;2022-11-15T17:00:33;4.70;;;2.42;;
24897;SDS011;12957;49.434;8.684;2022-11-15T17:02:59;3.47;;;2.67;;
24897;SDS011;12957;49.434;8.684;2022-11-15T17:05:24;3.38;;;2.50;;
24897;SDS011;12957;49.434;8.684;2022-11-15T17:07:52;7.07;;;2.50;;